sensor_id;sensor_type;location;lat;lon;timestamp;P1;durP1;ratioP1;P2;durP2;ratioP2
12122;SDS011;6125;59.628;17.852;2024-03-02T00:01:06;26.23;;;13.37;;
12122;SDS011;6125;59.628;17.852;2024-03-02T00:03:36;21.93;;;13.13;;
12122;SDS011;6125;59.628;17.852;2024-03-02T00:06:19;27.47;;;12.77;;
12122;SDS011;6125;59.628;17.852;2024-03-02T00:08:54;29.20;;;14.67;;
12122;SDS011;6125;59.628;17.852;2024-03-02T00:11:34;24.57;;;13.73;;
12122;SDS011;6125;59.628;17.852;2024-03-02T00:14:08;22.00;;;12.33;;
12122;SDS011;6125;59.628;17.852;2024-03-02T00:16:46;25.90;;;13.50;;
12122;SDS011;6125;59.628;17.852;2024-03-02T00:19:18;25.10;;;13.10;;
12122;SDS011;6125;59.628;17.852;2024-03-02T00:21:53;26.80;;;13.57;;
12122;SDS011;6125;59.628;17.852;2024-03-02T00:24:30;23.40;;;12.63;;
12122;SDS011;6125;59.628;17.852;2024-03-02T00:27:09;23.17;;;13.57;;
12122;SDS011;6125;59.628;17.852;2024-03-02T00:29:41;35.40;;;13.77;;
12122;SDS011;6125;59.628;17.852;2024-03-02T00:32:16;32.00;;;14.30;;
12122;SDS011;6125;59.628;17.852;2024-03-02T00:34:47;20.10;;;12.70;;
12122;SDS011;6125;59.628;17.852;2024-03-02T00:37:18;28.23;;;14.27;;
12122;SDS011;6125;59.628;17.852;2024-03-02T00:39:55;26.93;;;12.80;;
12122;SDS011;6125;59.628;17.852;2024-03-02T00:42:30;27.00;;;13.50;;
12122;SDS011;6125;59.628;17.852;2024-03-02T00:45:13;22.47;;;12.43;;
12122;SDS011;6125;59.628;17.852;2024-03-02T00:47:42;22.57;;;12.53;;
12122;SDS011;6125;59.628;17.852;2024-03-02T00:50:12;27.17;;;14.67;;
12122;SDS011;6125;59.628;17.852;2024-03-02T00:52:56;23.43;;;13.23;;
12122;SDS011;6125;59.628;17.852;2024-03-02T00:55:33;27.03;;;13.20;;
12122;SDS011;6125;59.628;17.852;2024-03-02T00:58:10;25.47;;;13.40;;
12122;SDS011;6125;59.628;17.852;2024-03-02T01:00:39;29.40;;;13.27;;
12122;SDS011;6125;59.628;17.852;2024-03-02T01:03:07;25.00;;;13.37;;
12122;SDS011;6125;59.628;17.852;2024-03-02T01:05:43;27.57;;;14.43;;
12122;SDS011;6125;59.628;17.852;2024-03-02T01:08:16;28.67;;;13.53;;
12122;SDS011;6125;59.628;17.852;2024-03-02T01:10:55;26.90;;;13.50;;
12122;SDS011;6125;59.628;17.852;2024-03-02T01:13:26;25.90;;;13.50;;
12122;SDS011;6125;59.628;17.852;2024-03-02T01:16:02;25.23;;;14.20;;
12122;SDS011;6125;59.628;17.852;2024-03-02T01:18:37;25.37;;;14.03;;
12122;SDS011;6125;59.628;17.852;2024-03-02T01:21:14;31.50;;;14.00;;
12122;SDS011;6125;59.628;17.852;2024-03-02T01:23:47;26.60;;;13.40;;
12122;SDS011;6125;59.628;17.852;2024-03-02T01:26:27;24.80;;;12.97;;
12122;SDS011;6125;59.628;17.852;2024-03-02T01:28:55;26.33;;;14.83;;
12122;SDS011;6125;59.628;17.852;2024-03-02T01:31:33;21.83;;;12.03;;
12122;SDS011;6125;59.628;17.852;2024-03-02T01:34:06;21.43;;;12.77;;
12122;SDS011;6125;59.628;17.852;2024-03-02T01:36:40;26.50;;;13.63;;
12122;SDS011;6125;59.628;17.852;2024-03-02T01:39:11;27.20;;;14.43;;
12122;SDS011;6125;59.628;17.852;2024-03-02T01:41:52;26.17;;;13.93;;
12122;SDS011;6125;59.628;17.852;2024-03-02T01:44:22;24.23;;;13.90;;
12122;SDS011;6125;59.628;17.852;2024-03-02T01:47:02;27.67;;;14.33;;
12122;SDS011;6125;59.628;17.852;2024-03-02T01:49:36;27.70;;;14.03;;
12122;SDS011;6125;59.628;17.852;2024-03-02T01:52:15;24.67;;;12.80;;
12122;SDS011;6125;59.628;17.852;2024-03-02T01:54:45;28.37;;;13.97;;
12122;SDS011;6125;59.628;17.852;2024-03-02T01:57:25;23.63;;;13.70;;
12122;SDS011;6125;59.628;17.852;2024-03-02T02:00:00;23.47;;;13.87;;
12122;SDS011;6125;59.628;17.852;2024-03-02T02:02:40;26.03;;;13.00;;
12122;SDS011;6125;59.628;17.852;2024-03-02T02:05:09;25.80;;;14.13;;
12122;SDS011;6125;59.628;17.852;2024-03-02T02:07:49;24.10;;;13.17;;
12122;SDS011;6125;59.628;17.852;2024-03-02T02:10:17;23.13;;;13.30;;
12122;SDS011;6125;59.628;17.852;2024-03-02T02:12:50;24.27;;;13.90;;
12122;SDS011;6125;59.628;17.852;2024-03-02T02:15:26;29.60;;;12.90;;
12122;SDS011;6125;59.628;17.852;2024-03-02T02:17:55;23.83;;;13.17;;
12122;SDS011;6125;59.628;17.852;2024-03-02T02:20:24;22.53;;;13.37;;
12122;SDS011;6125;59.628;17.852;2024-03-02T02:23:05;23.43;;;13.60;;
12122;SDS011;6125;59.628;17.852;2024-03-02T02:25:38;23.73;;;13.70;;
12122;SDS011;6125;59.628;17.852;2024-03-02T02:28:12;33.83;;;14.27;;
12122;SDS011;6125;59.628;17.852;2024-03-02T02:30:43;26.20;;;14.10;;
12122;SDS011;6125;59.628;17.852;2024-03-02T02:33:12;23.03;;;13.00;;
12122;SDS011;6125;59.628;17.852;2024-03-02T02:35:47;20.57;;;12.90;;
12122;SDS011;6125;59.628;17.852;2024-03-02T02:38:22;22.83;;;13.63;;
12122;SDS011;6125;59.628;17.852;2024-03-02T02:41:02;19.70;;;13.50;;
12122;SDS011;6125;59.628;17.852;2024-03-02T02:43:30;27.30;;;13.93;;
12122;SDS011;6125;59.628;17.852;2024-03-02T02:45:59;23.87;;;13.37;;
12122;SDS011;6125;59.628;17.852;2024-03-02T02:48:42;26.57;;;13.37;;
12122;SDS011;6125;59.628;17.852;2024-03-02T02:51:14;25.57;;;14.63;;
12122;SDS011;6125;59.628;17.852;2024-03-02T02:53:54;29.63;;;14.17;;
12122;SDS011;6125;59.628;17.852;2024-03-02T02:56:22;28.67;;;14.23;;
12122;SDS011;6125;59.628;17.852;2024-03-02T02:58:52;25.10;;;14.20;;
12122;SDS011;6125;59.628;17.852;2024-03-02T03:01:29;31.70;;;14.50;;
12122;SDS011;6125;59.628;17.852;2024-03-02T03:04:00;24.97;;;14.20;;
12122;SDS011;6125;59.628;17.852;2024-03-02T03:06:35;25.43;;;14.53;;
12122;SDS011;6125;59.628;17.852;2024-03-02T03:09:06;24.83;;;14.23;;
12122;SDS011;6125;59.628;17.852;2024-03-02T03:11:43;31.03;;;14.47;;
12122;SDS011;6125;59.628;17.852;2024-03-02T03:14:14;26.93;;;14.50;;
12122;SDS011;6125;59.628;17.852;2024-03-02T03:16:47;27.67;;;14.27;;
12122;SDS011;6125;59.628;17.852;2024-03-02T03:19:23;29.63;;;14.73;;
12122;SDS011;6125;59.628;17.852;2024-03-02T03:21:54;28.30;;;14.50;;
12122;SDS011;6125;59.628;17.852;2024-03-02T03:24:31;30.03;;;15.63;;
12122;SDS011;6125;59.628;17.852;2024-03-02T03:27:07;26.70;;;15.10;;
12122;SDS011;6125;59.628;17.852;2024-03-02T03:29:42;28.03;;;15.13;;
12122;SDS011;6125;59.628;17.852;2024-03-02T03:32:25;25.77;;;15.00;;
12122;SDS011;6125;59.628;17.852;2024-03-02T03:34:53;29.03;;;15.40;;
12122;SDS011;6125;59.628;17.852;2024-03-02T03:37:26;32.60;;;16.20;;
12122;SDS011;6125;59.628;17.852;2024-03-02T03:40:07;29.07;;;16.07;;
12122;SDS011;6125;59.628;17.852;2024-03-02T03:42:37;27.03;;;15.00;;
12122;SDS011;6125;59.628;17.852;2024-03-02T03:45:12;31.63;;;15.33;;
12122;SDS011;6125;59.628;17.852;2024-03-02T03:47:45;24.20;;;15.33;;
12122;SDS011;6125;59.628;17.852;2024-03-02T03:50:19;31.40;;;16.53;;
12122;SDS011;6125;59.628;17.852;2024-03-02T03:53:04;29.73;;;15.20;;
12122;SDS011;6125;59.628;17.852;2024-03-02T03:55:46;32.93;;;16.13;;
12122;SDS011;6125;59.628;17.852;2024-03-02T03:58:15;32.93;;;16.40;;
12122;SDS011;6125;59.628;17.852;2024-03-02T04:00:54;28.03;;;15.80;;
12122;SDS011;6125;59.628;17.852;2024-03-02T04:03:23;30.10;;;16.17;;
12122;SDS011;6125;59.628;17.852;2024-03-02T04:05:52;28.60;;;15.77;;
12122;SDS011;6125;59.628;17.852;2024-03-02T04:08:29;33.53;;;16.77;;
12122;SDS011;6125;59.628;17.852;2024-03-02T04:11:01;37.73;;;16.47;;
12122;SDS011;6125;59.628;17.852;2024-03-02T04:13:37;30.17;;;15.13;;
12122;SDS011;6125;59.628;17.852;2024-03-02T04:16:10;32.47;;;17.00;;
12122;SDS011;6125;59.628;17.852;2024-03-02T04:18:44;34.80;;;16.90;;
12122;SDS011;6125;59.628;17.852;2024-03-02T04:21:18;34.20;;;16.97;;
12122;SDS011;6125;59.628;17.852;2024-03-02T04:23:57;33.43;;;17.13;;
12122;SDS011;6125;59.628;17.852;2024-03-02T04:26:34;28.33;;;15.97;;
12122;SDS011;6125;59.628;17.852;2024-03-02T04:29:11;29.23;;;15.73;;
12122;SDS011;6125;59.628;17.852;2024-03-02T04:31:45;31.13;;;15.97;;
12122;SDS011;6125;59.628;17.852;2024-03-02T04:34:20;30.13;;;15.93;;
12122;SDS011;6125;59.628;17.852;2024-03-02T04:36:54;39.83;;;17.07;;
12122;SDS011;6125;59.628;17.852;2024-03-02T04:39:28;35.27;;;17.50;;
12122;SDS011;6125;59.628;17.852;2024-03-02T04:42:01;28.70;;;16.17;;
12122;SDS011;6125;59.628;17.852;2024-03-02T04:44:37;30.57;;;16.77;;
12122;SDS011;6125;59.628;17.852;2024-03-02T04:47:07;35.90;;;16.47;;
12122;SDS011;6125;59.628;17.852;2024-03-02T04:49:44;34.60;;;17.17;;
12122;SDS011;6125;59.628;17.852;2024-03-02T04:52:13;27.73;;;15.80;;
12122;SDS011;6125;59.628;17.852;2024-03-02T04:54:41;28.07;;;15.73;;
12122;SDS011;6125;59.628;17.852;2024-03-02T04:57:34;25.53;;;15.70;;
12122;SDS011;6125;59.628;17.852;2024-03-02T05:00:02;28.10;;;15.97;;
12122;SDS011;6125;59.628;17.852;2024-03-02T05:02:40;31.53;;;16.93;;
12122;SDS011;6125;59.628;17.852;2024-03-02T05:05:11;34.53;;;16.80;;
12122;SDS011;6125;59.628;17.852;2024-03-02T05:07:48;32.33;;;16.67;;
12122;SDS011;6125;59.628;17.852;2024-03-02T05:10:19;34.13;;;17.20;;
12122;SDS011;6125;59.628;17.852;2024-03-02T05:12:56;32.80;;;17.17;;
12122;SDS011;6125;59.628;17.852;2024-03-02T05:15:26;36.57;;;18.43;;
12122;SDS011;6125;59.628;17.852;2024-03-02T05:17:54;33.23;;;16.83;;
12122;SDS011;6125;59.628;17.852;2024-03-02T05:20:32;32.33;;;16.93;;
12122;SDS011;6125;59.628;17.852;2024-03-02T05:23:03;33.50;;;17.13;;
12122;SDS011;6125;59.628;17.852;2024-03-02T05:25:41;35.40;;;17.07;;
12122;SDS011;6125;59.628;17.852;2024-03-02T05:28:15;34.93;;;18.00;;
12122;SDS011;6125;59.628;17.852;2024-03-02T05:30:50;34.87;;;17.67;;
12122;SDS011;6125;59.628;17.852;2024-03-02T05:33:20;34.63;;;17.70;;
12122;SDS011;6125;59.628;17.852;2024-03-02T05:35:58;37.77;;;19.63;;
12122;SDS011;6125;59.628;17.852;2024-03-02T05:38:28;34.10;;;17.00;;
12122;SDS011;6125;59.628;17.852;2024-03-02T05:40:59;40.30;;;19.00;;
12122;SDS011;6125;59.628;17.852;2024-03-02T05:43:36;38.47;;;18.40;;
12122;SDS011;6125;59.628;17.852;2024-03-02T05:46:07;37.20;;;17.70;;
12122;SDS011;6125;59.628;17.852;2024-03-02T05:48:41;37.13;;;17.90;;
12122;SDS011;6125;59.628;17.852;2024-03-02T05:51:13;43.13;;;18.63;;
12122;SDS011;6125;59.628;17.852;2024-03-02T05:53:41;42.37;;;18.87;;
12122;SDS011;6125;59.628;17.852;2024-03-02T05:56:37;38.43;;;18.03;;
12122;SDS011;6125;59.628;17.852;2024-03-02T05:59:24;36.00;;;18.17;;
12122;SDS011;6125;59.628;17.852;2024-03-02T06:01:54;33.93;;;19.20;;
12122;SDS011;6125;59.628;17.852;2024-03-02T06:04:32;36.90;;;19.03;;
12122;SDS011;6125;59.628;17.852;2024-03-02T06:07:02;36.47;;;18.03;;
12122;SDS011;6125;59.628;17.852;2024-03-02T06:09:37;42.93;;;19.20;;
12122;SDS011;6125;59.628;17.852;2024-03-02T06:12:07;36.50;;;17.30;;
12122;SDS011;6125;59.628;17.852;2024-03-02T06:14:38;33.90;;;17.37;;
12122;SDS011;6125;59.628;17.852;2024-03-02T06:17:19;31.70;;;17.83;;
12122;SDS011;6125;59.628;17.852;2024-03-02T06:19:50;36.43;;;16.90;;
12122;SDS011;6125;59.628;17.852;2024-03-02T06:22:29;38.70;;;19.03;;
12122;SDS011;6125;59.628;17.852;2024-03-02T06:24:58;39.37;;;17.97;;
12122;SDS011;6125;59.628;17.852;2024-03-02T06:27:40;42.67;;;19.47;;
12122;SDS011;6125;59.628;17.852;2024-03-02T06:30:14;34.17;;;17.37;;
12122;SDS011;6125;59.628;17.852;2024-03-02T06:32:48;35.47;;;18.60;;
12122;SDS011;6125;59.628;17.852;2024-03-02T06:35:23;37.07;;;17.93;;
12122;SDS011;6125;59.628;17.852;2024-03-02T06:38:03;45.53;;;18.83;;
12122;SDS011;6125;59.628;17.852;2024-03-02T06:40:38;31.83;;;17.20;;
12122;SDS011;6125;59.628;17.852;2024-03-02T06:43:15;37.37;;;17.90;;
12122;SDS011;6125;59.628;17.852;2024-03-02T06:45:45;36.50;;;18.00;;
12122;SDS011;6125;59.628;17.852;2024-03-02T06:48:25;32.37;;;17.73;;
12122;SDS011;6125;59.628;17.852;2024-03-02T06:50:59;36.97;;;16.97;;
12122;SDS011;6125;59.628;17.852;2024-03-02T06:53:36;33.50;;;17.13;;
12122;SDS011;6125;59.628;17.852;2024-03-02T06:56:07;34.60;;;16.67;;
12122;SDS011;6125;59.628;17.852;2024-03-02T06:58:43;31.83;;;16.67;;
12122;SDS011;6125;59.628;17.852;2024-03-02T07:01:13;34.20;;;15.67;;
12122;SDS011;6125;59.628;17.852;2024-03-02T07:03:42;35.30;;;15.97;;
12122;SDS011;6125;59.628;17.852;2024-03-02T07:06:20;31.07;;;16.27;;
12122;SDS011;6125;59.628;17.852;2024-03-02T07:08:52;33.53;;;16.67;;
12122;SDS011;6125;59.628;17.852;2024-03-02T07:11:26;30.03;;;15.93;;
12122;SDS011;6125;59.628;17.852;2024-03-02T07:13:55;28.97;;;15.77;;
12122;SDS011;6125;59.628;17.852;2024-03-02T07:16:28;29.10;;;15.20;;
12122;SDS011;6125;59.628;17.852;2024-03-02T07:19:05;32.30;;;15.07;;
12122;SDS011;6125;59.628;17.852;2024-03-02T07:21:35;26.27;;;15.60;;
12122;SDS011;6125;59.628;17.852;2024-03-02T07:24:05;30.60;;;15.13;;
12122;SDS011;6125;59.628;17.852;2024-03-02T07:26:52;26.43;;;15.33;;
12122;SDS011;6125;59.628;17.852;2024-03-02T07:29:21;29.77;;;14.73;;
12122;SDS011;6125;59.628;17.852;2024-03-02T07:32:04;30.20;;;14.30;;
12122;SDS011;6125;59.628;17.852;2024-03-02T07:34:36;31.47;;;15.47;;
12122;SDS011;6125;59.628;17.852;2024-03-02T07:37:14;27.23;;;14.27;;
12122;SDS011;6125;59.628;17.852;2024-03-02T07:39:42;30.07;;;13.43;;
12122;SDS011;6125;59.628;17.852;2024-03-02T07:42:11;26.27;;;12.93;;
12122;SDS011;6125;59.628;17.852;2024-03-02T07:44:53;29.43;;;15.10;;
12122;SDS011;6125;59.628;17.852;2024-03-02T07:47:23;23.17;;;13.50;;
12122;SDS011;6125;59.628;17.852;2024-03-02T07:50:06;27.30;;;14.37;;
12122;SDS011;6125;59.628;17.852;2024-03-02T07:52:40;26.83;;;13.60;;
12122;SDS011;6125;59.628;17.852;2024-03-02T07:55:14;24.50;;;14.10;;
12122;SDS011;6125;59.628;17.852;2024-03-02T07:57:46;19.17;;;12.00;;
12122;SDS011;6125;59.628;17.852;2024-03-02T08:00:28;27.87;;;13.30;;
12122;SDS011;6125;59.628;17.852;2024-03-02T08:03:06;24.27;;;13.53;;
12122;SDS011;6125;59.628;17.852;2024-03-02T08:05:44;27.93;;;13.03;;
12122;SDS011;6125;59.628;17.852;2024-03-02T08:08:14;21.07;;;12.50;;
12122;SDS011;6125;59.628;17.852;2024-03-02T08:10:55;25.27;;;13.13;;
12122;SDS011;6125;59.628;17.852;2024-03-02T08:13:27;27.07;;;12.83;;
12122;SDS011;6125;59.628;17.852;2024-03-02T08:16:05;22.67;;;13.20;;
12122;SDS011;6125;59.628;17.852;2024-03-02T08:18:37;27.70;;;14.10;;
12122;SDS011;6125;59.628;17.852;2024-03-02T08:21:15;23.63;;;14.07;;
12122;SDS011;6125;59.628;17.852;2024-03-02T08:23:45;25.87;;;12.50;;
12122;SDS011;6125;59.628;17.852;2024-03-02T08:26:14;25.50;;;11.63;;
12122;SDS011;6125;59.628;17.852;2024-03-02T08:28:49;25.97;;;12.60;;
12122;SDS011;6125;59.628;17.852;2024-03-02T08:31:19;25.30;;;12.70;;
12122;SDS011;6125;59.628;17.852;2024-03-02T08:34:01;24.33;;;11.73;;
12122;SDS011;6125;59.628;17.852;2024-03-02T08:36:37;22.27;;;11.67;;
12122;SDS011;6125;59.628;17.852;2024-03-02T08:39:13;20.30;;;11.53;;
12122;SDS011;6125;59.628;17.852;2024-03-02T08:41:45;21.80;;;12.10;;
12122;SDS011;6125;59.628;17.852;2024-03-02T08:44:24;24.47;;;12.43;;
12122;SDS011;6125;59.628;17.852;2024-03-02T08:46:52;21.83;;;11.73;;
12122;SDS011;6125;59.628;17.852;2024-03-02T08:49:31;23.00;;;11.93;;
12122;SDS011;6125;59.628;17.852;2024-03-02T08:52:06;21.73;;;12.20;;
12122;SDS011;6125;59.628;17.852;2024-03-02T08:54:48;20.30;;;12.10;;
12122;SDS011;6125;59.628;17.852;2024-03-02T08:57:23;21.50;;;11.43;;
12122;SDS011;6125;59.628;17.852;2024-03-02T09:00:04;19.50;;;11.57;;
12122;SDS011;6125;59.628;17.852;2024-03-02T09:02:35;17.40;;;10.43;;
12122;SDS011;6125;59.628;17.852;2024-03-02T09:05:12;21.70;;;10.77;;
12122;SDS011;6125;59.628;17.852;2024-03-02T09:07:47;18.30;;;11.10;;
12122;SDS011;6125;59.628;17.852;2024-03-02T09:10:22;18.77;;;11.03;;
12122;SDS011;6125;59.628;17.852;2024-03-02T09:12:54;19.23;;;11.40;;
12122;SDS011;6125;59.628;17.852;2024-03-02T09:15:29;17.17;;;10.27;;
12122;SDS011;6125;59.628;17.852;2024-03-02T09:18:08;19.57;;;10.87;;
12122;SDS011;6125;59.628;17.852;2024-03-02T09:20:45;18.27;;;10.73;;
12122;SDS011;6125;59.628;17.852;2024-03-02T09:23:13;18.03;;;11.23;;
12122;SDS011;6125;59.628;17.852;2024-03-02T09:26:00;20.87;;;11.37;;
12122;SDS011;6125;59.628;17.852;2024-03-02T09:28:30;20.37;;;10.47;;
12122;SDS011;6125;59.628;17.852;2024-03-02T09:31:08;16.83;;;10.40;;
12122;SDS011;6125;59.628;17.852;2024-03-02T09:33:38;23.93;;;11.07;;
12122;SDS011;6125;59.628;17.852;2024-03-02T09:36:18;18.70;;;10.43;;
12122;SDS011;6125;59.628;17.852;2024-03-02T09:38:47;20.27;;;11.33;;
12122;SDS011;6125;59.628;17.852;2024-03-02T09:41:22;22.77;;;11.93;;
12122;SDS011;6125;59.628;17.852;2024-03-02T09:43:54;22.03;;;11.90;;
12122;SDS011;6125;59.628;17.852;2024-03-02T09:46:31;18.13;;;11.50;;
12122;SDS011;6125;59.628;17.852;2024-03-02T09:48:59;19.57;;;11.00;;
12122;SDS011;6125;59.628;17.852;2024-03-02T09:51:29;19.23;;;11.17;;
12122;SDS011;6125;59.628;17.852;2024-03-02T09:54:06;20.77;;;11.17;;
12122;SDS011;6125;59.628;17.852;2024-03-02T09:56:47;22.53;;;11.07;;
12122;SDS011;6125;59.628;17.852;2024-03-02T10:02:14;16.97;;;10.13;;
12122;SDS011;6125;59.628;17.852;2024-03-02T10:04:49;23.07;;;12.93;;
12122;SDS011;6125;59.628;17.852;2024-03-02T10:07:22;21.13;;;12.07;;
12122;SDS011;6125;59.628;17.852;2024-03-02T10:09:57;20.13;;;11.17;;
12122;SDS011;6125;59.628;17.852;2024-03-02T10:12:26;22.93;;;10.47;;
12122;SDS011;6125;59.628;17.852;2024-03-02T10:15:02;16.47;;;10.07;;
12122;SDS011;6125;59.628;17.852;2024-03-02T10:17:40;18.37;;;9.53;;
12122;SDS011;6125;59.628;17.852;2024-03-02T10:20:21;21.57;;;10.33;;
12122;SDS011;6125;59.628;17.852;2024-03-02T10:23:01;17.07;;;9.97;;
12122;SDS011;6125;59.628;17.852;2024-03-02T10:25:38;20.33;;;10.93;;
12122;SDS011;6125;59.628;17.852;2024-03-02T10:28:23;18.67;;;10.70;;
12122;SDS011;6125;59.628;17.852;2024-03-02T10:30:57;17.47;;;10.80;;
12122;SDS011;6125;59.628;17.852;2024-03-02T10:33:40;18.07;;;10.20;;
12122;SDS011;6125;59.628;17.852;2024-03-02T10:36:11;16.33;;;10.70;;
12122;SDS011;6125;59.628;17.852;2024-03-02T10:38:51;16.17;;;10.13;;
12122;SDS011;6125;59.628;17.852;2024-03-02T10:41:23;17.27;;;10.50;;
12122;SDS011;6125;59.628;17.852;2024-03-02T10:43:58;19.83;;;10.70;;
12122;SDS011;6125;59.628;17.852;2024-03-02T10:46:28;19.53;;;10.87;;
12122;SDS011;6125;59.628;17.852;2024-03-02T10:49:06;22.40;;;11.27;;
12122;SDS011;6125;59.628;17.852;2024-03-02T10:51:39;16.33;;;9.90;;
12122;SDS011;6125;59.628;17.852;2024-03-02T10:54:15;19.90;;;10.97;;
12122;SDS011;6125;59.628;17.852;2024-03-02T10:56:45;20.00;;;11.43;;
12122;SDS011;6125;59.628;17.852;2024-03-02T10:59:23;19.77;;;10.43;;
12122;SDS011;6125;59.628;17.852;2024-03-02T11:01:58;17.90;;;9.33;;
12122;SDS011;6125;59.628;17.852;2024-03-02T11:04:36;19.37;;;11.07;;
12122;SDS011;6125;59.628;17.852;2024-03-02T11:07:08;18.20;;;10.83;;
12122;SDS011;6125;59.628;17.852;2024-03-02T11:09:49;20.13;;;11.13;;
12122;SDS011;6125;59.628;17.852;2024-03-02T11:12:28;18.20;;;10.90;;
12122;SDS011;6125;59.628;17.852;2024-03-02T11:15:09;19.17;;;9.93;;
12122;SDS011;6125;59.628;17.852;2024-03-02T11:17:39;19.93;;;10.97;;
12122;SDS011;6125;59.628;17.852;2024-03-02T11:20:16;18.53;;;9.90;;
12122;SDS011;6125;59.628;17.852;2024-03-02T11:22:47;21.10;;;10.63;;
12122;SDS011;6125;59.628;17.852;2024-03-02T11:25:28;19.73;;;11.07;;
12122;SDS011;6125;59.628;17.852;2024-03-02T11:28:06;18.57;;;9.70;;
12122;SDS011;6125;59.628;17.852;2024-03-02T11:30:51;24.93;;;10.83;;
12122;SDS011;6125;59.628;17.852;2024-03-02T11:33:23;17.93;;;10.90;;
12122;SDS011;6125;59.628;17.852;2024-03-02T11:36:00;18.43;;;11.73;;
12122;SDS011;6125;59.628;17.852;2024-03-02T11:38:37;19.47;;;11.23;;
12122;SDS011;6125;59.628;17.852;2024-03-02T11:41:19;15.17;;;10.17;;
12122;SDS011;6125;59.628;17.852;2024-03-02T11:43:51;16.33;;;10.57;;
12122;SDS011;6125;59.628;17.852;2024-03-02T11:46:29;14.50;;;10.33;;
12122;SDS011;6125;59.628;17.852;2024-03-02T11:48:58;21.87;;;11.33;;
12122;SDS011;6125;59.628;17.852;2024-03-02T11:51:30;20.10;;;11.13;;
12122;SDS011;6125;59.628;17.852;2024-03-02T11:54:08;23.13;;;10.43;;
12122;SDS011;6125;59.628;17.852;2024-03-02T11:56:41;18.97;;;10.47;;
12122;SDS011;6125;59.628;17.852;2024-03-02T11:59:19;18.03;;;11.00;;
12122;SDS011;6125;59.628;17.852;2024-03-02T12:01:49;17.70;;;11.00;;
12122;SDS011;6125;59.628;17.852;2024-03-02T12:04:24;18.80;;;10.87;;
12122;SDS011;6125;59.628;17.852;2024-03-02T12:06:55;17.83;;;10.53;;
12122;SDS011;6125;59.628;17.852;2024-03-02T12:09:34;19.87;;;9.87;;
12122;SDS011;6125;59.628;17.852;2024-03-02T12:12:12;19.63;;;10.67;;
12122;SDS011;6125;59.628;17.852;2024-03-02T12:14:55;16.70;;;10.43;;
12122;SDS011;6125;59.628;17.852;2024-03-02T12:17:29;17.30;;;10.43;;
12122;SDS011;6125;59.628;17.852;2024-03-02T12:20:11;19.57;;;11.10;;
12122;SDS011;6125;59.628;17.852;2024-03-02T12:22:40;16.40;;;10.73;;
12122;SDS011;6125;59.628;17.852;2024-03-02T12:25:13;18.60;;;11.17;;
12122;SDS011;6125;59.628;17.852;2024-03-02T12:27:51;20.73;;;11.10;;
12122;SDS011;6125;59.628;17.852;2024-03-02T12:30:21;22.67;;;11.70;;
12122;SDS011;6125;59.628;17.852;2024-03-02T12:32:56;19.57;;;10.07;;
12122;SDS011;6125;59.628;17.852;2024-03-02T12:35:25;20.43;;;11.67;;
12122;SDS011;6125;59.628;17.852;2024-03-02T12:37:54;17.37;;;10.63;;
12122;SDS011;6125;59.628;17.852;2024-03-02T12:40:30;20.77;;;11.10;;
12122;SDS011;6125;59.628;17.852;2024-03-02T12:43:02;17.30;;;9.90;;
12122;SDS011;6125;59.628;17.852;2024-03-02T12:45:37;19.17;;;10.23;;
12122;SDS011;6125;59.628;17.852;2024-03-02T12:48:07;19.30;;;10.40;;
12122;SDS011;6125;59.628;17.852;2024-03-02T12:50:38;21.97;;;11.77;;
12122;SDS011;6125;59.628;17.852;2024-03-02T12:53:14;20.93;;;10.10;;
12122;SDS011;6125;59.628;17.852;2024-03-02T12:55:46;14.57;;;9.43;;
12122;SDS011;6125;59.628;17.852;2024-03-02T12:58:25;19.73;;;10.60;;
12122;SDS011;6125;59.628;17.852;2024-03-02T13:01:10;15.50;;;10.03;;
12122;SDS011;6125;59.628;17.852;2024-03-02T13:03:48;20.23;;;10.33;;
12122;SDS011;6125;59.628;17.852;2024-03-02T13:06:18;18.10;;;10.70;;
12122;SDS011;6125;59.628;17.852;2024-03-02T13:08:54;19.37;;;10.63;;
12122;SDS011;6125;59.628;17.852;2024-03-02T13:11:25;16.83;;;10.93;;
12122;SDS011;6125;59.628;17.852;2024-03-02T13:13:55;15.37;;;9.67;;
12122;SDS011;6125;59.628;17.852;2024-03-02T13:16:30;18.87;;;10.10;;
12122;SDS011;6125;59.628;17.852;2024-03-02T13:19:12;18.37;;;10.73;;
12122;SDS011;6125;59.628;17.852;2024-03-02T13:22:09;17.17;;;9.80;;
12122;SDS011;6125;59.628;17.852;2024-03-02T13:24:41;17.83;;;10.03;;
12122;SDS011;6125;59.628;17.852;2024-03-02T13:27:27;18.43;;;11.10;;
12122;SDS011;6125;59.628;17.852;2024-03-02T13:30:02;20.97;;;9.53;;
12122;SDS011;6125;59.628;17.852;2024-03-02T13:32:39;16.87;;;10.40;;
12122;SDS011;6125;59.628;17.852;2024-03-02T13:35:07;16.80;;;10.70;;
12122;SDS011;6125;59.628;17.852;2024-03-02T13:37:37;15.50;;;9.33;;
12122;SDS011;6125;59.628;17.852;2024-03-02T13:40:12;19.23;;;10.10;;
12122;SDS011;6125;59.628;17.852;2024-03-02T13:42:47;18.50;;;9.97;;
12122;SDS011;6125;59.628;17.852;2024-03-02T13:45:30;20.47;;;10.90;;
12122;SDS011;6125;59.628;17.852;2024-03-02T13:48:01;19.67;;;10.10;;
12122;SDS011;6125;59.628;17.852;2024-03-02T13:50:37;19.87;;;11.03;;
12122;SDS011;6125;59.628;17.852;2024-03-02T13:53:07;18.90;;;9.07;;
12122;SDS011;6125;59.628;17.852;2024-03-02T13:55:44;13.83;;;9.97;;
12122;SDS011;6125;59.628;17.852;2024-03-02T13:58:13;15.63;;;10.03;;
12122;SDS011;6125;59.628;17.852;2024-03-02T14:00:43;18.63;;;10.40;;
12122;SDS011;6125;59.628;17.852;2024-03-02T14:03:20;21.23;;;10.43;;
12122;SDS011;6125;59.628;17.852;2024-03-02T14:05:56;24.00;;;10.07;;
12122;SDS011;6125;59.628;17.852;2024-03-02T14:08:32;18.47;;;9.60;;
12122;SDS011;6125;59.628;17.852;2024-03-02T14:11:04;15.43;;;9.23;;
12122;SDS011;6125;59.628;17.852;2024-03-02T14:13:40;14.87;;;9.50;;
12122;SDS011;6125;59.628;17.852;2024-03-02T14:16:17;19.03;;;10.33;;
12122;SDS011;6125;59.628;17.852;2024-03-02T14:18:54;15.23;;;9.23;;
12122;SDS011;6125;59.628;17.852;2024-03-02T14:21:30;14.40;;;9.87;;
12122;SDS011;6125;59.628;17.852;2024-03-02T14:24:11;17.30;;;9.70;;
12122;SDS011;6125;59.628;17.852;2024-03-02T14:26:39;17.30;;;9.93;;
12122;SDS011;6125;59.628;17.852;2024-03-02T14:29:10;19.07;;;9.93;;
12122;SDS011;6125;59.628;17.852;2024-03-02T14:31:49;16.47;;;9.53;;
12122;SDS011;6125;59.628;17.852;2024-03-02T14:34:20;14.70;;;9.53;;
12122;SDS011;6125;59.628;17.852;2024-03-02T14:36:55;15.63;;;9.73;;
12122;SDS011;6125;59.628;17.852;2024-03-02T14:39:27;15.07;;;9.43;;
12122;SDS011;6125;59.628;17.852;2024-03-02T14:42:03;14.53;;;10.07;;
12122;SDS011;6125;59.628;17.852;2024-03-02T14:44:46;19.17;;;9.43;;
12122;SDS011;6125;59.628;17.852;2024-03-02T14:47:22;20.23;;;10.77;;
12122;SDS011;6125;59.628;17.852;2024-03-02T14:49:56;13.13;;;8.30;;
12122;SDS011;6125;59.628;17.852;2024-03-02T14:52:37;15.70;;;10.47;;
12122;SDS011;6125;59.628;17.852;2024-03-02T14:55:11;21.53;;;10.67;;
12122;SDS011;6125;59.628;17.852;2024-03-02T14:57:50;16.80;;;9.57;;
12122;SDS011;6125;59.628;17.852;2024-03-02T15:00:27;14.40;;;8.87;;
12122;SDS011;6125;59.628;17.852;2024-03-02T15:03:06;18.00;;;9.90;;
12122;SDS011;6125;59.628;17.852;2024-03-02T15:05:35;14.07;;;9.37;;
12122;SDS011;6125;59.628;17.852;2024-03-02T15:08:09;17.97;;;9.23;;
12122;SDS011;6125;59.628;17.852;2024-03-02T15:10:40;16.70;;;9.60;;